sensor_id;sensor_type;location;lat;lon;timestamp;pressure;altitude;pressure_sealevel;temperature;humidity
6343;BME280;3204;42.698;23.298;2022-09-09T00:04:05;95173.69;;;19.96;73.00
6343;BME280;3204;42.698;23.298;2022-09-09T00:06:53;95173.50;;;19.89;73.07
6343;BME280;3204;42.698;23.298;2022-09-09T00:09:23;95171.16;;;19.88;73.38
6343;BME280;3204;42.698;23.298;2022-09-09T00:11:51;95173.09;;;19.87;73.06
6343;BME280;3204;42.698;23.298;2022-09-09T00:15:22;95177.00;;;19.86;73.25
6343;BME280;3204;42.698;23.298;2022-09-09T00:20:37;95167.00;;;19.78;73.59
6343;BME280;3204;42.698;23.298;2022-09-09T00:26:01;95154.63;;;19.69;74.17
6343;BME280;3204;42.698;23.298;2022-09-09T00:28:28;95147.22;;;19.73;74.20
6343;BME280;3204;42.698;23.298;2022-09-09T00:31:04;95144.09;;;19.74;74.14
6343;BME280;3204;42.698;23.298;2022-09-09T00:33:34;95146.38;;;19.69;74.73
6343;BME280;3204;42.698;23.298;2022-09-09T00:36:00;95148.38;;;19.72;74.25
6343;BME280;3204;42.698;23.298;2022-09-09T00:38:32;95137.72;;;19.70;74.58
6343;BME280;3204;42.698;23.298;2022-09-09T00:41:06;95128.91;;;19.61;74.96
6343;BME280;3204;42.698;23.298;2022-09-09T00:43:37;95124.91;;;19.59;75.30
6343;BME280;3204;42.698;23.298;2022-09-09T00:46:24;95136.72;;;19.59;75.41
6343;BME280;3204;42.698;23.298;2022-09-09T00:54:48;95140.84;;;19.50;76.01
6343;BME280;3204;42.698;23.298;2022-09-09T00:57:32;95133.34;;;19.50;76.17
6343;BME280;3204;42.698;23.298;2022-09-09T01:00:22;95131.06;;;19.52;76.01
6343;BME280;3204;42.698;23.298;2022-09-09T01:03:18;95131.78;;;19.49;76.27
6343;BME280;3204;42.698;23.298;2022-09-09T01:08:55;95140.31;;;19.44;76.24
6343;BME280;3204;42.698;23.298;2022-09-09T01:11:33;95140.94;;;19.38;76.64
6343;BME280;3204;42.698;23.298;2022-09-09T01:14:16;95146.09;;;19.39;76.39
6343;BME280;3204;42.698;23.298;2022-09-09T01:16:46;95151.06;;;19.34;76.87
6343;BME280;3204;42.698;23.298;2022-09-09T01:19:24;95149.56;;;19.36;76.94
6343;BME280;3204;42.698;23.298;2022-09-09T01:22:03;95141.22;;;19.33;77.06
6343;BME280;3204;42.698;23.298;2022-09-09T01:25:01;95134.78;;;19.25;77.70
6343;BME280;3204;42.698;23.298;2022-09-09T01:27:31;95132.38;;;19.24;78.01
6343;BME280;3204;42.698;23.298;2022-09-09T01:29:57;95132.44;;;19.27;77.64
6343;BME280;3204;42.698;23.298;2022-09-09T01:32:53;95137.16;;;19.27;77.80
6343;BME280;3204;42.698;23.298;2022-09-09T01:35:29;95147.81;;;19.28;78.18
6343;BME280;3204;42.698;23.298;2022-09-09T01:37:57;95149.13;;;19.19;78.15
6343;BME280;3204;42.698;23.298;2022-09-09T01:40:23;95156.84;;;19.13;78.43
6343;BME280;3204;42.698;23.298;2022-09-09T01:42:49;95151.91;;;19.03;78.87
6343;BME280;3204;42.698;23.298;2022-09-09T01:45:14;95150.09;;;19.11;78.80
6343;BME280;3204;42.698;23.298;2022-09-09T01:47:41;95146.22;;;19.12;78.33
6343;BME280;3204;42.698;23.298;2022-09-09T01:50:08;95148.78;;;19.05;78.48
6343;BME280;3204;42.698;23.298;2022-09-09T01:52:36;95158.56;;;19.02;78.20
6343;BME280;3204;42.698;23.298;2022-09-09T01:55:03;95159.09;;;19.08;77.99
6343;BME280;3204;42.698;23.298;2022-09-09T01:57:33;95163.06;;;19.10;77.20
6343;BME280;3204;42.698;23.298;2022-09-09T02:00:05;95152.84;;;19.11;76.96
6343;BME280;3204;42.698;23.298;2022-09-09T02:02:51;95155.00;;;19.02;77.09
6343;BME280;3204;42.698;23.298;2022-09-09T02:05:34;95150.16;;;18.95;77.39
6343;BME280;3204;42.698;23.298;2022-09-09T02:08:16;95154.75;;;18.91;78.06
6343;BME280;3204;42.698;23.298;2022-09-09T02:10:49;95153.16;;;18.90;78.13
6343;BME280;3204;42.698;23.298;2022-09-09T02:13:19;95144.47;;;18.88;78.16
6343;BME280;3204;42.698;23.298;2022-09-09T02:15:57;95119.66;;;18.85;78.02
6343;BME280;3204;42.698;23.298;2022-09-09T02:19:09;95131.88;;;18.87;78.30
6343;BME280;3204;42.698;23.298;2022-09-09T02:21:34;95134.63;;;18.87;78.05
6343;BME280;3204;42.698;23.298;2022-09-09T02:24:04;95138.53;;;18.86;78.31
6343;BME280;3204;42.698;23.298;2022-09-09T02:26:32;95140.06;;;18.84;78.62
6343;BME280;3204;42.698;23.298;2022-09-09T02:29:01;95146.31;;;18.84;78.27
6343;BME280;3204;42.698;23.298;2022-09-09T02:31:28;95143.06;;;18.79;78.50
6343;BME280;3204;42.698;23.298;2022-09-09T02:33:59;95146.16;;;18.77;78.69
6343;BME280;3204;42.698;23.298;2022-09-09T02:36:29;95145.91;;;18.82;78.65
6343;BME280;3204;42.698;23.298;2022-09-09T02:38:56;95157.84;;;18.74;78.68
6343;BME280;3204;42.698;23.298;2022-09-09T02:41:37;95166.56;;;18.76;78.77
6343;BME280;3204;42.698;23.298;2022-09-09T02:44:08;95153.59;;;18.77;78.77
6343;BME280;3204;42.698;23.298;2022-09-09T02:52:14;95157.75;;;18.55;78.65
6343;BME280;3204;42.698;23.298;2022-09-09T02:54:44;95154.84;;;18.48;79.04
6343;BME280;3204;42.698;23.298;2022-09-09T02:57:21;95157.34;;;18.53;78.54
6343;BME280;3204;42.698;23.298;2022-09-09T02:59:48;95159.72;;;18.55;78.54
6343;BME280;3204;42.698;23.298;2022-09-09T03:02:15;95159.28;;;18.68;77.55
6343;BME280;3204;42.698;23.298;2022-09-09T03:04:41;95163.34;;;18.59;77.63
6343;BME280;3204;42.698;23.298;2022-09-09T03:07:10;95162.56;;;18.58;77.64
6343;BME280;3204;42.698;23.298;2022-09-09T03:09:35;95164.75;;;18.53;77.74
6343;BME280;3204;42.698;23.298;2022-09-09T03:12:01;95157.59;;;18.48;77.92
6343;BME280;3204;42.698;23.298;2022-09-09T03:14:26;95160.69;;;18.47;77.87
6343;BME280;3204;42.698;23.298;2022-09-09T03:16:52;95159.44;;;18.44;78.02
6343;BME280;3204;42.698;23.298;2022-09-09T03:19:19;95151.22;;;18.44;77.68
6343;BME280;3204;42.698;23.298;2022-09-09T03:21:45;95160.16;;;18.41;77.75
6343;BME280;3204;42.698;23.298;2022-09-09T03:24:13;95146.50;;;18.45;77.82
6343;BME280;3204;42.698;23.298;2022-09-09T03:26:39;95150.41;;;18.44;77.73
6343;BME280;3204;42.698;23.298;2022-09-09T03:29:06;95150.25;;;18.52;77.32
6343;BME280;3204;42.698;23.298;2022-09-09T03:31:32;95148.63;;;18.51;77.15
6343;BME280;3204;42.698;23.298;2022-09-09T03:33:58;95150.31;;;18.40;77.35
6343;BME280;3204;42.698;23.298;2022-09-09T03:36:25;95147.13;;;18.38;77.45
6343;BME280;3204;42.698;23.298;2022-09-09T03:38:51;95151.38;;;18.36;77.57
6343;BME280;3204;42.698;23.298;2022-09-09T03:41:17;95151.72;;;18.34;77.64
6343;BME280;3204;42.698;23.298;2022-09-09T03:43:43;95154.13;;;18.36;77.61
6343;BME280;3204;42.698;23.298;2022-09-09T03:46:09;95155.25;;;18.35;77.92
6343;BME280;3204;42.698;23.298;2022-09-09T03:48:35;95151.63;;;18.31;78.07
6343;BME280;3204;42.698;23.298;2022-09-09T03:51:00;95152.00;;;18.17;78.73
6343;BME280;3204;42.698;23.298;2022-09-09T03:53:26;95153.47;;;18.27;78.48
6343;BME280;3204;42.698;23.298;2022-09-09T03:55:54;95163.28;;;18.28;78.53
6343;BME280;3204;42.698;23.298;2022-09-09T03:58:21;95167.81;;;18.20;78.90
6343;BME280;3204;42.698;23.298;2022-09-09T04:01:16;95166.72;;;18.25;78.57
6343;BME280;3204;42.698;23.298;2022-09-09T04:03:43;95170.28;;;18.25;78.69
6343;BME280;3204;42.698;23.298;2022-09-09T04:06:14;95170.69;;;18.39;78.00
6343;BME280;3204;42.698;23.298;2022-09-09T04:08:40;95164.59;;;18.18;78.67
6343;BME280;3204;42.698;23.298;2022-09-09T04:11:07;95160.59;;;18.16;79.07
6343;BME280;3204;42.698;23.298;2022-09-09T04:13:34;95163.22;;;18.24;78.77
6343;BME280;3204;42.698;23.298;2022-09-09T04:16:00;95154.50;;;18.22;78.82
6343;BME280;3204;42.698;23.298;2022-09-09T04:18:26;95154.16;;;18.24;79.01
6343;BME280;3204;42.698;23.298;2022-09-09T04:20:53;95157.00;;;18.27;78.89
6343;BME280;3204;42.698;23.298;2022-09-09T04:23:20;95162.47;;;18.27;78.72
6343;BME280;3204;42.698;23.298;2022-09-09T04:25:53;95157.09;;;18.31;78.58
6343;BME280;3204;42.698;23.298;2022-09-09T04:28:20;95166.13;;;18.31;78.56
6343;BME280;3204;42.698;23.298;2022-09-09T04:30:46;95166.94;;;18.32;78.67
6343;BME280;3204;42.698;23.298;2022-09-09T04:33:13;95167.06;;;18.35;78.38
6343;BME280;3204;42.698;23.298;2022-09-09T04:35:43;95163.50;;;18.35;78.43
6343;BME280;3204;42.698;23.298;2022-09-09T04:38:09;95168.66;;;18.36;78.39
6343;BME280;3204;42.698;23.298;2022-09-09T04:40:34;95172.63;;;18.39;78.61
6343;BME280;3204;42.698;23.298;2022-09-09T04:43:02;95169.81;;;18.35;78.63
6343;BME280;3204;42.698;23.298;2022-09-09T04:45:31;95168.22;;;18.34;78.79
6343;BME280;3204;42.698;23.298;2022-09-09T04:47:57;95161.13;;;18.33;78.67
6343;BME280;3204;42.698;23.298;2022-09-09T04:50:22;95163.50;;;18.35;78.84
6343;BME280;3204;42.698;23.298;2022-09-09T04:52:48;95167.94;;;18.39;78.79
6343;BME280;3204;42.698;23.298;2022-09-09T04:55:14;95152.72;;;18.42;78.65
6343;BME280;3204;42.698;23.298;2022-09-09T04:57:40;95153.41;;;18.39;78.73
6343;BME280;3204;42.698;23.298;2022-09-09T05:00:06;95150.88;;;18.46;78.40
6343;BME280;3204;42.698;23.298;2022-09-09T05:02:32;95157.69;;;18.52;78.17
6343;BME280;3204;42.698;23.298;2022-09-09T05:04:58;95147.94;;;18.54;77.90
6343;BME280;3204;42.698;23.298;2022-09-09T05:07:23;95144.66;;;18.64;78.01
6343;BME280;3204;42.698;23.298;2022-09-09T05:09:49;95146.72;;;18.67;77.85
6343;BME280;3204;42.698;23.298;2022-09-09T05:12:15;95141.91;;;18.64;78.03
6343;BME280;3204;42.698;23.298;2022-09-09T05:14:42;95149.25;;;18.60;78.48
6343;BME280;3204;42.698;23.298;2022-09-09T05:17:08;95162.72;;;18.65;78.39
6343;BME280;3204;42.698;23.298;2022-09-09T05:19:33;95153.94;;;18.75;77.93
6343;BME280;3204;42.698;23.298;2022-09-09T05:21:58;95144.31;;;18.81;77.63
6343;BME280;3204;42.698;23.298;2022-09-09T05:24:24;95145.63;;;18.87;77.56
6343;BME280;3204;42.698;23.298;2022-09-09T05:26:50;95141.63;;;19.00;76.82
6343;BME280;3204;42.698;23.298;2022-09-09T05:29:15;95149.75;;;19.12;76.31
6343;BME280;3204;42.698;23.298;2022-09-09T05:31:44;95155.88;;;19.21;76.11
6343;BME280;3204;42.698;23.298;2022-09-09T05:34:10;95157.19;;;19.27;75.67
6343;BME280;3204;42.698;23.298;2022-09-09T05:36:36;95153.91;;;19.22;75.43
6343;BME280;3204;42.698;23.298;2022-09-09T05:39:02;95148.13;;;19.42;74.50
6343;BME280;3204;42.698;23.298;2022-09-09T05:41:28;95143.59;;;19.50;73.76
6343;BME280;3204;42.698;23.298;2022-09-09T05:43:54;95156.13;;;19.47;73.82
6343;BME280;3204;42.698;23.298;2022-09-09T05:46:22;95157.13;;;19.58;73.35
6343;BME280;3204;42.698;23.298;2022-09-09T05:48:48;95159.66;;;19.67;72.77
6343;BME280;3204;42.698;23.298;2022-09-09T05:51:18;95158.66;;;19.75;72.64
6343;BME280;3204;42.698;23.298;2022-09-09T05:53:46;95156.34;;;19.77;72.50
6343;BME280;3204;42.698;23.298;2022-09-09T05:56:25;95157.75;;;19.86;72.48
6343;BME280;3204;42.698;23.298;2022-09-09T05:58:52;95153.81;;;20.06;71.88
6343;BME280;3204;42.698;23.298;2022-09-09T06:03:47;95171.34;;;20.36;71.21
6343;BME280;3204;42.698;23.298;2022-09-09T06:06:15;95174.38;;;20.50;70.88
6343;BME280;3204;42.698;23.298;2022-09-09T06:08:43;95182.28;;;20.74;69.45
6343;BME280;3204;42.698;23.298;2022-09-09T06:11:17;95178.41;;;20.75;68.56
6343;BME280;3204;42.698;23.298;2022-09-09T06:13:43;95169.81;;;20.80;68.96
6343;BME280;3204;42.698;23.298;2022-09-09T06:16:14;95160.66;;;20.95;68.62
6343;BME280;3204;42.698;23.298;2022-09-09T06:18:41;95165.31;;;21.17;67.81
6343;BME280;3204;42.698;23.298;2022-09-09T06:21:10;95169.28;;;21.42;66.34
6343;BME280;3204;42.698;23.298;2022-09-09T06:23:36;95172.78;;;21.65;65.61
6343;BME280;3204;42.698;23.298;2022-09-09T06:26:14;95170.28;;;21.83;64.81
6343;BME280;3204;42.698;23.298;2022-09-09T06:28:40;95170.69;;;21.85;64.64
6343;BME280;3204;42.698;23.298;2022-09-09T06:31:10;95173.34;;;22.07;63.68
6343;BME280;3204;42.698;23.298;2022-09-09T06:33:40;95166.56;;;22.34;63.09
6343;BME280;3204;42.698;23.298;2022-09-09T06:38:42;95160.97;;;22.60;62.10
6343;BME280;3204;42.698;23.298;2022-09-09T06:41:09;95147.22;;;22.67;62.21
6343;BME280;3204;42.698;23.298;2022-09-09T06:43:34;95152.16;;;22.88;61.33
6343;BME280;3204;42.698;23.298;2022-09-09T06:46:09;95150.34;;;23.06;61.57
6343;BME280;3204;42.698;23.298;2022-09-09T06:48:35;95157.28;;;23.29;59.47
6343;BME280;3204;42.698;23.298;2022-09-09T06:53:32;95173.16;;;23.39;57.98
6343;BME280;3204;42.698;23.298;2022-09-09T06:56:41;95177.97;;;23.49;58.48
6343;BME280;3204;42.698;23.298;2022-09-09T06:58:49;95161.09;;;23.68;57.07
6343;BME280;3204;42.698;23.298;2022-09-09T07:01:17;95175.16;;;23.96;56.62
6343;BME280;3204;42.698;23.298;2022-09-09T07:03:48;95170.41;;;23.93;55.77
6343;BME280;3204;42.698;23.298;2022-09-09T07:06:23;95175.84;;;23.86;56.31
6343;BME280;3204;42.698;23.298;2022-09-09T07:08:52;95166.47;;;24.01;56.50
6343;BME280;3204;42.698;23.298;2022-09-09T07:11:19;95168.59;;;24.32;55.47
6343;BME280;3204;42.698;23.298;2022-09-09T07:13:45;95169.09;;;24.62;54.85
6343;BME280;3204;42.698;23.298;2022-09-09T07:16:14;95160.84;;;24.87;54.19
6343;BME280;3204;42.698;23.298;2022-09-09T07:18:40;95163.66;;;25.15;53.21
6343;BME280;3204;42.698;23.298;2022-09-09T07:21:06;95167.63;;;25.35;53.06
6343;BME280;3204;42.698;23.298;2022-09-09T07:23:32;95164.44;;;25.54;52.35
6343;BME280;3204;42.698;23.298;2022-09-09T07:25:58;95152.91;;;25.73;52.25
6343;BME280;3204;42.698;23.298;2022-09-09T07:28:24;95157.66;;;25.79;50.88
6343;BME280;3204;42.698;23.298;2022-09-09T07:30:58;95164.47;;;25.50;51.62
6343;BME280;3204;42.698;23.298;2022-09-09T07:33:25;95156.94;;;25.40;51.97
6343;BME280;3204;42.698;23.298;2022-09-09T07:35:51;95157.72;;;25.44;51.13
6343;BME280;3204;42.698;23.298;2022-09-09T07:38:18;95157.28;;;25.70;50.91
6343;BME280;3204;42.698;23.298;2022-09-09T07:40:44;95155.66;;;25.94;50.26
6343;BME280;3204;42.698;23.298;2022-09-09T07:43:10;95161.91;;;26.26;49.46
6343;BME280;3204;42.698;23.298;2022-09-09T07:45:36;95166.56;;;26.60;49.09
6343;BME280;3204;42.698;23.298;2022-09-09T07:48:01;95161.66;;;26.85;48.53
6343;BME280;3204;42.698;23.298;2022-09-09T07:50:27;95160.72;;;27.06;47.72
6343;BME280;3204;42.698;23.298;2022-09-09T07:52:53;95163.72;;;27.33;46.80
6343;BME280;3204;42.698;23.298;2022-09-09T07:55:22;95163.03;;;27.22;46.95
6343;BME280;3204;42.698;23.298;2022-09-09T07:57:51;95162.81;;;27.50;46.65
6343;BME280;3204;42.698;23.298;2022-09-09T08:00:16;95162.03;;;27.46;46.77
6343;BME280;3204;42.698;23.298;2022-09-09T08:02:44;95152.59;;;27.33;46.38
6343;BME280;3204;42.698;23.298;2022-09-09T08:05:09;95158.53;;;27.38;46.85
6343;BME280;3204;42.698;23.298;2022-09-09T08:07:35;95161.16;;;27.56;46.49
6343;BME280;3204;42.698;23.298;2022-09-09T08:10:01;95165.03;;;27.69;46.37
6343;BME280;3204;42.698;23.298;2022-09-09T08:12:26;95147.44;;;27.75;45.98
6343;BME280;3204;42.698;23.298;2022-09-09T08:14:52;95156.63;;;27.28;46.64
6343;BME280;3204;42.698;23.298;2022-09-09T08:17:19;95153.81;;;26.66;47.54
6343;BME280;3204;42.698;23.298;2022-09-09T08:19:45;95156.81;;;26.96;47.50
6343;BME280;3204;42.698;23.298;2022-09-09T08:22:10;95158.31;;;27.11;48.10
6343;BME280;3204;42.698;23.298;2022-09-09T08:24:36;95155.13;;;27.09;48.00
6343;BME280;3204;42.698;23.298;2022-09-09T08:27:02;95155.97;;;27.03;47.62
6343;BME280;3204;42.698;23.298;2022-09-09T08:29:27;95145.69;;;26.96;47.59
6343;BME280;3204;42.698;23.298;2022-09-09T08:31:57;95138.16;;;26.90;47.88
6343;BME280;3204;42.698;23.298;2022-09-09T08:34:24;95137.41;;;26.79;47.47
6343;BME280;3204;42.698;23.298;2022-09-09T08:36:52;95148.28;;;26.52;48.32
6343;BME280;3204;42.698;23.298;2022-09-09T08:39:19;95143.25;;;26.19;48.90
6343;BME280;3204;42.698;23.298;2022-09-09T08:42:13;95140.47;;;26.26;48.24
6343;BME280;3204;42.698;23.298;2022-09-09T08:50:17;95133.13;;;26.71;48.31
6343;BME280;3204;42.698;23.298;2022-09-09T08:55:56;95131.03;;;27.40;47.66
6343;BME280;3204;42.698;23.298;2022-09-09T09:09:36;95140.91;;;27.92;46.82
6343;BME280;3204;42.698;23.298;2022-09-09T09:12:15;95129.47;;;27.80;45.88
6343;BME280;3204;42.698;23.298;2022-09-09T09:14:42;95132.47;;;27.59;46.72
6343;BME280;3204;42.698;23.298;2022-09-09T09:17:17;95134.22;;;27.79;46.31
6343;BME280;3204;42.698;23.298;2022-09-09T09:19:45;95128.78;;;27.69;47.01
6343;BME280;3204;42.698;23.298;2022-09-09T09:22:22;95129.09;;;27.78;46.82
6343;BME280;3204;42.698;23.298;2022-09-09T09:24:52;95125.09;;;27.79;46.95
6343;BME280;3204;42.698;23.298;2022-09-09T09:30:19;95131.69;;;27.55;47.20
6343;BME280;3204;42.698;23.298;2022-09-09T09:33:11;95128.47;;;27.60;47.40
6343;BME280;3204;42.698;23.298;2022-09-09T09:35:40;95124.38;;;27.71;47.04
6343;BME280;3204;42.698;23.298;2022-09-09T09:38:23;95124.63;;;27.43;47.55
6343;BME280;3204;42.698;23.298;2022-09-09T09:40:54;95116.03;;;27.23;47.86
6343;BME280;3204;42.698;23.298;2022-09-09T09:43:36;95117.50;;;27.38;47.04
6343;BME280;3204;42.698;23.298;2022-09-09T09:46:17;95115.91;;;27.38;46.87
6343;BME280;3204;42.698;23.298;2022-09-09T09:48:43;95114.88;;;27.17;47.49
6343;BME280;3204;42.698;23.298;2022-09-09T09:51:12;95104.25;;;27.02;47.76
6343;BME280;3204;42.698;23.298;2022-09-09T09:53:41;95104.69;;;26.97;47.95
6343;BME280;3204;42.698;23.298;2022-09-09T09:56:08;95103.91;;;26.96;48.44
6343;BME280;3204;42.698;23.298;2022-09-09T09:58:50;95095.44;;;27.10;48.43
6343;BME280;3204;42.698;23.298;2022-09-09T10:01:30;95094.97;;;27.23;48.17
6343;BME280;3204;42.698;23.298;2022-09-09T10:04:22;95095.19;;;27.38;47.86
6343;BME280;3204;42.698;23.298;2022-09-09T10:06:49;95103.88;;;27.51;47.89
6343;BME280;3204;42.698;23.298;2022-09-09T10:09:26;95112.19;;;27.55;47.91
6343;BME280;3204;42.698;23.298;2022-09-09T10:12:13;95105.78;;;27.58;47.69
6343;BME280;3204;42.698;23.298;2022-09-09T10:17:39;95122.63;;;27.43;48.64
6343;BME280;3204;42.698;23.298;2022-09-09T10:20:32;95116.44;;;27.26;48.54
6343;BME280;3204;42.698;23.298;2022-09-09T10:37:03;95101.16;;;26.89;49.21
6343;BME280;3204;42.698;23.298;2022-09-09T10:39:35;95113.09;;;26.86;49.71
6343;BME280;3204;42.698;23.298;2022-09-09T10:42:06;95117.16;;;26.78;50.08
6343;BME280;3204;42.698;23.298;2022-09-09T10:48:04;95117.94;;;26.82;50.26
6343;BME280;3204;42.698;23.298;2022-09-09T10:50:53;95123.06;;;26.84;50.64
6343;BME280;3204;42.698;23.298;2022-09-09T10:53:45;95115.16;;;26.82;50.52
6343;BME280;3204;42.698;23.298;2022-09-09T10:56:16;95124.97;;;26.97;50.77
6343;BME280;3204;42.698;23.298;2022-09-09T10:59:22;95125.34;;;26.99;50.48
6343;BME280;3204;42.698;23.298;2022-09-09T11:02:01;95120.22;;;26.94;51.27
6343;BME280;3204;42.698;23.298;2022-09-09T11:04:32;95109.91;;;26.91;50.38
6343;BME280;3204;42.698;23.298;2022-09-09T11:07:02;95107.53;;;26.86;50.49
6343;BME280;3204;42.698;23.298;2022-09-09T11:09:35;95119.91;;;26.82;50.68
6343;BME280;3204;42.698;23.298;2022-09-09T11:12:02;95116.38;;;26.74;51.25
6343;BME280;3204;42.698;23.298;2022-09-09T11:14:39;95115.22;;;26.72;51.76
6343;BME280;3204;42.698;23.298;2022-09-09T11:17:12;95111.66;;;26.68;52.38
6343;BME280;3204;42.698;23.298;2022-09-09T11:19:41;95107.66;;;26.72;52.17
6343;BME280;3204;42.698;23.298;2022-09-09T11:22:33;95102.03;;;26.79;52.27
6343;BME280;3204;42.698;23.298;2022-09-09T11:25:08;95103.09;;;26.96;52.46
6343;BME280;3204;42.698;23.298;2022-09-09T11:38:52;95063.75;;;26.90;52.99
6343;BME280;3204;42.698;23.298;2022-09-09T11:41:19;95059.78;;;26.91;53.23
6343;BME280;3204;42.698;23.298;2022-09-09T11:43:49;95051.41;;;26.95;53.47
6343;BME280;3204;42.698;23.298;2022-09-09T11:46:39;95045.72;;;27.05;53.15
6343;BME280;3204;42.698;23.298;2022-09-09T11:51:50;95013.50;;;27.04;52.92
6343;BME280;3204;42.698;23.298;2022-09-09T11:54:29;95031.84;;;27.02;52.91
6343;BME280;3204;42.698;23.298;2022-09-09T11:56:55;95030.13;;;27.18;52.78
6343;BME280;3204;42.698;23.298;2022-09-09T11:59:28;95030.84;;;27.26;52.68
6343;BME280;3204;42.698;23.298;2022-09-09T12:04:31;95032.53;;;27.57;52.56
6343;BME280;3204;42.698;23.298;2022-09-09T12:09:44;95023.41;;;27.90;51.98
6343;BME280;3204;42.698;23.298;2022-09-09T12:14:42;95019.78;;;28.23;51.57
6343;BME280;3204;42.698;23.298;2022-09-09T12:17:22;95009.75;;;28.26;51.24
6343;BME280;3204;42.698;23.298;2022-09-09T12:20:04;94998.28;;;28.20;51.99
6343;BME280;3204;42.698;23.298;2022-09-09T12:22:40;94999.06;;;28.21;52.10
6343;BME280;3204;42.698;23.298;2022-09-09T12:25:18;95001.22;;;28.40;52.14
6343;BME280;3204;42.698;23.298;2022-09-09T12:28:05;95010.34;;;28.67;51.43
6343;BME280;3204;42.698;23.298;2022-09-09T12:33:20;94991.44;;;29.04;50.18
6343;BME280;3204;42.698;23.298;2022-09-09T12:35:57;94987.09;;;29.00;51.02
6343;BME280;3204;42.698;23.298;2022-09-09T12:38:34;94985.63;;;28.92;50.06
6343;BME280;3204;42.698;23.298;2022-09-09T12:41:00;94986.50;;;28.36;50.81
6343;BME280;3204;42.698;23.298;2022-09-09T12:43:27;94993.78;;;28.00;51.29
6343;BME280;3204;42.698;23.298;2022-09-09T12:45:58;94994.50;;;27.74;52.22
6343;BME280;3204;42.698;23.298;2022-09-09T12:48:32;94976.09;;;27.80;52.52
6343;BME280;3204;42.698;23.298;2022-09-09T12:51:00;94983.75;;;27.72;52.29
6343;BME280;3204;42.698;23.298;2022-09-09T12:53:38;94983.34;;;27.74;52.41
6343;BME280;3204;42.698;23.298;2022-09-09T12:56:07;94982.94;;;27.72;52.28
6343;BME280;3204;42.698;23.298;2022-09-09T12:58:33;94980.69;;;27.93;52.15
6343;BME280;3204;42.698;23.298;2022-09-09T13:01:00;94986.91;;;28.08;51.62
6343;BME280;3204;42.698;23.298;2022-09-09T13:03:27;94970.78;;;28.19;51.90
6343;BME280;3204;42.698;23.298;2022-09-09T13:05:53;94980.16;;;28.32;50.33
6343;BME280;3204;42.698;23.298;2022-09-09T13:08:19;94966.63;;;28.30;50.18
6343;BME280;3204;42.698;23.298;2022-09-09T13:10:52;94972.16;;;28.34;50.42
6343;BME280;3204;42.698;23.298;2022-09-09T13:13:24;94973.69;;;28.38;50.53
6343;BME280;3204;42.698;23.298;2022-09-09T13:15:57;94970.31;;;28.54;50.60
6343;BME280;3204;42.698;23.298;2022-09-09T13:18:27;94962.13;;;28.66;50.30
6343;BME280;3204;42.698;23.298;2022-09-09T13:20:54;94950.16;;;28.66;50.31
6343;BME280;3204;42.698;23.298;2022-09-09T13:23:21;94953.47;;;28.57;50.61
6343;BME280;3204;42.698;23.298;2022-09-09T13:25:54;94936.38;;;28.55;51.04
6343;BME280;3204;42.698;23.298;2022-09-09T13:28:23;94943.88;;;28.58;50.84
6343;BME280;3204;42.698;23.298;2022-09-09T13:31:18;94936.00;;;28.53;50.93
6343;BME280;3204;42.698;23.298;2022-09-09T13:33:45;94936.78;;;28.54;50.90
6343;BME280;3204;42.698;23.298;2022-09-09T13:36:12;94920.88;;;28.51;50.76
6343;BME280;3204;42.698;23.298;2022-09-09T13:39:00;94936.41;;;28.52;50.85
6343;BME280;3204;42.698;23.298;2022-09-09T13:41:43;94937.28;;;28.49;50.92
6343;BME280;3204;42.698;23.298;2022-09-09T13:44:24;94923.81;;;28.44;50.91
6343;BME280;3204;42.698;23.298;2022-09-09T13:47:19;94910.19;;;28.46;51.01
6343;BME280;3204;42.698;23.298;2022-09-09T13:49:45;94929.75;;;28.46;51.46
6343;BME280;3204;42.698;23.298;2022-09-09T13:52:13;94915.31;;;28.51;50.19
6343;BME280;3204;42.698;23.298;2022-09-09T13:54:40;94924.03;;;28.53;50.02
6343;BME280;3204;42.698;23.298;2022-09-09T13:57:15;94920.53;;;28.49;49.78
6343;BME280;3204;42.698;23.298;2022-09-09T13:59:41;94909.28;;;28.52;48.94
6343;BME280;3204;42.698;23.298;2022-09-09T14:02:07;94913.75;;;28.73;48.24
6343;BME280;3204;42.698;23.298;2022-09-09T14:04:32;94921.97;;;28.80;47.99
6343;BME280;3204;42.698;23.298;2022-09-09T14:06:59;94923.06;;;28.86;47.53
6343;BME280;3204;42.698;23.298;2022-09-09T14:09:24;94916.22;;;28.90;47.98
6343;BME280;3204;42.698;23.298;2022-09-09T14:11:50;94908.88;;;29.00;48.36
6343;BME280;3204;42.698;23.298;2022-09-09T14:14:15;94912.78;;;29.06;47.87
6343;BME280;3204;42.698;23.298;2022-09-09T14:16:40;94907.22;;;29.02;48.17
6343;BME280;3204;42.698;23.298;2022-09-09T14:19:08;94908.53;;;28.98;48.35
6343;BME280;3204;42.698;23.298;2022-09-09T14:21:33;94899.38;;;28.94;47.74
6343;BME280;3204;42.698;23.298;2022-09-09T14:23:59;94901.03;;;28.91;47.10
6343;BME280;3204;42.698;23.298;2022-09-09T14:26:25;94897.81;;;28.93;47.12
6343;BME280;3204;42.698;23.298;2022-09-09T14:28:50;94904.19;;;28.93;46.75
6343;BME280;3204;42.698;23.298;2022-09-09T14:31:17;94899.78;;;28.73;46.79
6343;BME280;3204;42.698;23.298;2022-09-09T14:33:43;94903.22;;;28.57;48.74
6343;BME280;3204;42.698;23.298;2022-09-09T14:36:09;94907.28;;;28.26;50.01
6343;BME280;3204;42.698;23.298;2022-09-09T14:38:37;94896.66;;;28.18;50.57
6343;BME280;3204;42.698;23.298;2022-09-09T14:41:11;94889.28;;;28.31;50.48
6343;BME280;3204;42.698;23.298;2022-09-09T14:43:38;94904.13;;;28.51;50.17
6343;BME280;3204;42.698;23.298;2022-09-09T14:46:08;94890.34;;;28.63;50.11
6343;BME280;3204;42.698;23.298;2022-09-09T14:48:35;94905.34;;;28.73;49.63
6343;BME280;3204;42.698;23.298;2022-09-09T14:51:12;94894.63;;;28.71;49.58
6343;BME280;3204;42.698;23.298;2022-09-09T14:53:39;94901.41;;;28.70;49.70
6343;BME280;3204;42.698;23.298;2022-09-09T14:56:10;94904.25;;;28.44;49.94
6343;BME280;3204;42.698;23.298;2022-09-09T14:58:36;94900.81;;;28.33;50.32
6343;BME280;3204;42.698;23.298;2022-09-09T15:01:10;94909.59;;;28.05;50.38
6343;BME280;3204;42.698;23.298;2022-09-09T15:03:37;94908.34;;;27.83;50.74
6343;BME280;3204;42.698;23.298;2022-09-09T15:06:13;94919.50;;;27.49;51.63
6343;BME280;3204;42.698;23.298;2022-09-09T15:08:41;94910.00;;;27.47;51.81